sensor_id;sensor_type;location;lat;lon;timestamp;noise_LAeq;noise_LA_min;noise_LA_max;noise_LA01;noise_LA95
72805;Laerm;60920;48.748;19.142;2023-02-28T00:01:06;34.30;32.26;37.02;;
72805;Laerm;60920;48.748;19.142;2023-02-28T00:03:31;34.22;32.67;37.87;;
72805;Laerm;60920;48.748;19.142;2023-02-28T00:06:00;34.18;32.67;35.99;;
72805;Laerm;60920;48.748;19.142;2023-02-28T00:08:26;34.35;32.66;39.10;;
72805;Laerm;60920;48.748;19.142;2023-02-28T00:10:52;34.19;32.74;35.79;;
72805;Laerm;60920;48.748;19.142;2023-02-28T00:13:17;34.50;32.56;39.63;;
72805;Laerm;60920;48.748;19.142;2023-02-28T00:15:43;34.33;32.61;38.01;;
72805;Laerm;60920;48.748;19.142;2023-02-28T00:18:09;33.97;32.59;35.53;;
72805;Laerm;60920;48.748;19.142;2023-02-28T00:20:34;34.03;32.25;36.39;;
72805;Laerm;60920;48.748;19.142;2023-02-28T00:22:59;34.09;32.53;37.64;;
72805;Laerm;60920;48.748;19.142;2023-02-28T00:25:25;33.90;32.57;35.79;;
72805;Laerm;60920;48.748;19.142;2023-02-28T00:27:51;33.92;32.55;35.30;;
72805;Laerm;60920;48.748;19.142;2023-02-28T00:30:17;33.97;32.38;35.57;;
72805;Laerm;60920;48.748;19.142;2023-02-28T00:32:43;34.20;32.62;37.19;;
72805;Laerm;60920;48.748;19.142;2023-02-28T00:35:09;34.13;32.54;37.63;;
72805;Laerm;60920;48.748;19.142;2023-02-28T00:37:35;34.41;32.99;36.07;;
72805;Laerm;60920;48.748;19.142;2023-02-28T00:40:00;34.53;32.60;40.13;;
72805;Laerm;60920;48.748;19.142;2023-02-28T00:42:26;34.06;32.33;35.35;;
72805;Laerm;60920;48.748;19.142;2023-02-28T00:44:51;34.13;32.65;36.34;;
72805;Laerm;60920;48.748;19.142;2023-02-28T00:47:17;34.15;32.42;37.14;;
72805;Laerm;60920;48.748;19.142;2023-02-28T00:49:42;33.99;32.55;35.47;;
72805;Laerm;60920;48.748;19.142;2023-02-28T00:52:08;33.93;32.55;35.36;;
72805;Laerm;60920;48.748;19.142;2023-02-28T00:54:33;33.93;32.55;35.38;;
72805;Laerm;60920;48.748;19.142;2023-02-28T00:56:59;34.25;32.74;39.75;;
72805;Laerm;60920;48.748;19.142;2023-02-28T00:59:25;34.12;32.28;36.04;;
72805;Laerm;60920;48.748;19.142;2023-02-28T01:01:50;34.16;32.84;35.95;;
72805;Laerm;60920;48.748;19.142;2023-02-28T01:04:16;34.43;32.79;41.04;;
72805;Laerm;60920;48.748;19.142;2023-02-28T01:06:41;34.55;32.86;38.08;;
72805;Laerm;60920;48.748;19.142;2023-02-28T01:09:07;34.44;32.92;37.82;;
72805;Laerm;60920;48.748;19.142;2023-02-28T01:11:33;34.35;32.95;36.04;;
72805;Laerm;60920;48.748;19.142;2023-02-28T01:13:59;34.73;32.89;38.76;;
72805;Laerm;60920;48.748;19.142;2023-02-28T01:16:24;34.56;33.06;38.89;;
72805;Laerm;60920;48.748;19.142;2023-02-28T01:18:49;34.46;32.72;35.76;;
72805;Laerm;60920;48.748;19.142;2023-02-28T01:21:16;34.75;33.23;36.21;;
72805;Laerm;60920;48.748;19.142;2023-02-28T01:23:42;34.75;33.33;36.34;;
72805;Laerm;60920;48.748;19.142;2023-02-28T01:26:09;34.87;33.14;39.81;;
72805;Laerm;60920;48.748;19.142;2023-02-28T01:28:35;34.77;33.24;36.59;;
72805;Laerm;60920;48.748;19.142;2023-02-28T01:31:00;34.96;33.09;38.03;;
72805;Laerm;60920;48.748;19.142;2023-02-28T01:33:26;34.75;32.91;37.21;;
72805;Laerm;60920;48.748;19.142;2023-02-28T01:36:01;34.76;33.29;36.77;;
72805;Laerm;60920;48.748;19.142;2023-02-28T01:38:27;34.69;33.15;36.42;;
72805;Laerm;60920;48.748;19.142;2023-02-28T01:40:52;34.78;33.23;37.05;;
72805;Laerm;60920;48.748;19.142;2023-02-28T01:43:25;34.65;33.08;37.75;;
72805;Laerm;60920;48.748;19.142;2023-02-28T01:45:54;34.72;32.96;37.48;;
72805;Laerm;60920;48.748;19.142;2023-02-28T01:48:25;34.69;33.15;37.42;;
72805;Laerm;60920;48.748;19.142;2023-02-28T01:50:51;34.61;33.19;36.74;;
72805;Laerm;60920;48.748;19.142;2023-02-28T01:53:19;34.49;32.91;36.58;;
72805;Laerm;60920;48.748;19.142;2023-02-28T01:55:47;34.86;33.05;39.86;;
72805;Laerm;60920;48.748;19.142;2023-02-28T01:58:14;34.63;32.77;38.48;;
72805;Laerm;60920;48.748;19.142;2023-02-28T02:00:39;34.23;32.89;36.90;;
72805;Laerm;60920;48.748;19.142;2023-02-28T02:03:12;34.26;32.89;36.61;;
72805;Laerm;60920;48.748;19.142;2023-02-28T02:05:39;34.26;32.83;36.83;;
72805;Laerm;60920;48.748;19.142;2023-02-28T02:08:05;34.11;32.62;35.96;;
72805;Laerm;60920;48.748;19.142;2023-02-28T02:37:14;34.29;32.34;39.63;;
72805;Laerm;60920;48.748;19.142;2023-02-28T02:39:16;34.18;32.58;39.12;;
72805;Laerm;60920;48.748;19.142;2023-02-28T02:41:51;33.96;32.49;35.47;;
72805;Laerm;60920;48.748;19.142;2023-02-28T02:46:49;34.19;32.73;36.59;;
72805;Laerm;60920;48.748;19.142;2023-02-28T02:49:24;34.37;32.41;37.82;;
72805;Laerm;60920;48.748;19.142;2023-02-28T02:51:51;34.03;32.45;36.50;;
72805;Laerm;60920;48.748;19.142;2023-02-28T02:54:19;34.19;32.66;36.97;;
72805;Laerm;60920;48.748;19.142;2023-02-28T02:56:46;34.14;32.47;35.84;;
72805;Laerm;60920;48.748;19.142;2023-02-28T02:59:13;34.25;32.58;37.80;;
72805;Laerm;60920;48.748;19.142;2023-02-28T03:01:40;34.16;32.55;35.66;;
72805;Laerm;60920;48.748;19.142;2023-02-28T03:04:15;34.30;32.54;38.37;;
72805;Laerm;60920;48.748;19.142;2023-02-28T03:06:41;34.10;32.29;38.85;;
72805;Laerm;60920;48.748;19.142;2023-02-28T03:09:07;34.63;32.34;39.43;;
72805;Laerm;60920;48.748;19.142;2023-02-28T03:11:32;33.75;32.21;36.02;;
72805;Laerm;60920;48.748;19.142;2023-02-28T03:14:04;33.82;32.20;35.85;;
72805;Laerm;60920;48.748;19.142;2023-02-28T03:16:36;33.82;32.35;36.83;;
72805;Laerm;60920;48.748;19.142;2023-02-28T03:24:39;33.74;32.08;36.61;;
72805;Laerm;60920;48.748;19.142;2023-02-28T03:27:15;33.56;31.76;35.16;;
72805;Laerm;60920;48.748;19.142;2023-02-28T03:29:43;33.62;32.00;35.52;;
72805;Laerm;60920;48.748;19.142;2023-02-28T03:32:19;33.48;32.01;36.45;;
72805;Laerm;60920;48.748;19.142;2023-02-28T03:34:49;33.14;31.39;34.89;;
72805;Laerm;60920;48.748;19.142;2023-02-28T03:37:19;33.27;31.51;35.72;;
72805;Laerm;60920;48.748;19.142;2023-02-28T03:39:50;33.39;31.63;35.60;;
72805;Laerm;60920;48.748;19.142;2023-02-28T03:42:19;33.12;31.44;35.93;;
72805;Laerm;60920;48.748;19.142;2023-02-28T03:44:51;33.31;31.67;36.56;;
72805;Laerm;60920;48.748;19.142;2023-02-28T03:49:59;33.64;31.73;38.34;;
72805;Laerm;60920;48.748;19.142;2023-02-28T03:52:27;33.32;31.56;38.17;;
72805;Laerm;60920;48.748;19.142;2023-02-28T03:54:55;33.79;31.67;40.55;;
72805;Laerm;60920;48.748;19.142;2023-02-28T03:59:52;33.82;31.45;40.06;;
72805;Laerm;60920;48.748;19.142;2023-02-28T04:02:19;33.87;31.74;39.88;;
72805;Laerm;60920;48.748;19.142;2023-02-28T04:04:44;33.97;31.60;40.97;;
72805;Laerm;60920;48.748;19.142;2023-02-28T04:07:13;34.17;31.67;41.14;;
72805;Laerm;60920;48.748;19.142;2023-02-28T04:09:38;34.20;32.12;42.10;;
72805;Laerm;60920;48.748;19.142;2023-02-28T04:12:04;34.11;31.81;41.42;;
72805;Laerm;60920;48.748;19.142;2023-02-28T04:14:29;34.08;31.71;41.29;;
72805;Laerm;60920;48.748;19.142;2023-02-28T04:16:55;34.41;31.87;42.40;;
72805;Laerm;60920;48.748;19.142;2023-02-28T04:19:20;34.11;31.72;42.29;;
72805;Laerm;60920;48.748;19.142;2023-02-28T04:21:52;34.83;31.74;41.55;;
72805;Laerm;60920;48.748;19.142;2023-02-28T04:24:19;34.64;31.90;43.05;;
72805;Laerm;60920;48.748;19.142;2023-02-28T04:26:45;34.47;31.79;41.48;;
72805;Laerm;60920;48.748;19.142;2023-02-28T04:29:12;34.89;32.30;41.58;;
72805;Laerm;60920;48.748;19.142;2023-02-28T04:31:38;35.06;32.20;45.84;;
72805;Laerm;60920;48.748;19.142;2023-02-28T04:34:04;35.17;32.70;40.66;;
72805;Laerm;60920;48.748;19.142;2023-02-28T04:36:29;34.90;32.49;42.78;;
72805;Laerm;60920;48.748;19.142;2023-02-28T04:38:55;35.02;32.74;43.03;;
72805;Laerm;60920;48.748;19.142;2023-02-28T04:41:21;35.11;32.75;40.49;;
72805;Laerm;60920;48.748;19.142;2023-02-28T04:43:47;34.83;32.72;41.03;;
72805;Laerm;60920;48.748;19.142;2023-02-28T04:46:13;35.41;33.04;41.72;;
72805;Laerm;60920;48.748;19.142;2023-02-28T04:48:39;34.81;32.76;38.37;;
72805;Laerm;60920;48.748;19.142;2023-02-28T04:51:09;34.86;32.44;39.54;;
72805;Laerm;60920;48.748;19.142;2023-02-28T04:53:35;35.02;32.60;38.31;;
72805;Laerm;60920;48.748;19.142;2023-02-28T04:56:00;34.85;33.05;38.43;;
72805;Laerm;60920;48.748;19.142;2023-02-28T04:58:25;34.60;32.77;37.53;;
72805;Laerm;60920;48.748;19.142;2023-02-28T05:00:51;34.91;32.70;40.58;;
72805;Laerm;60920;48.748;19.142;2023-02-28T05:03:17;34.77;32.43;42.82;;
72805;Laerm;60920;48.748;19.142;2023-02-28T05:05:42;35.00;32.38;39.80;;
72805;Laerm;60920;48.748;19.142;2023-02-28T05:08:08;34.53;32.76;37.33;;
72805;Laerm;60920;48.748;19.142;2023-02-28T05:10:34;34.86;32.83;38.51;;
72805;Laerm;60920;48.748;19.142;2023-02-28T05:13:00;35.26;32.56;41.71;;
72805;Laerm;60920;48.748;19.142;2023-02-28T05:15:25;34.90;32.51;40.89;;
72805;Laerm;60920;48.748;19.142;2023-02-28T05:17:50;35.42;32.95;43.22;;
72805;Laerm;60920;48.748;19.142;2023-02-28T05:20:16;35.92;32.84;47.05;;
72805;Laerm;60920;48.748;19.142;2023-02-28T05:22:42;35.39;32.65;42.69;;
72805;Laerm;60920;48.748;19.142;2023-02-28T05:25:18;35.93;33.48;40.25;;
72805;Laerm;60920;48.748;19.142;2023-02-28T05:27:44;35.97;33.51;40.81;;
72805;Laerm;60920;48.748;19.142;2023-02-28T05:30:09;36.12;33.61;43.65;;
72805;Laerm;60920;48.748;19.142;2023-02-28T05:32:38;35.40;33.10;47.29;;
72805;Laerm;60920;48.748;19.142;2023-02-28T05:35:04;36.07;33.93;44.61;;
72805;Laerm;60920;48.748;19.142;2023-02-28T05:37:30;36.24;33.69;45.67;;
72805;Laerm;60920;48.748;19.142;2023-02-28T05:39:55;36.14;33.80;41.34;;
72805;Laerm;60920;48.748;19.142;2023-02-28T05:42:21;36.23;33.91;40.97;;
72805;Laerm;60920;48.748;19.142;2023-02-28T05:44:46;36.62;34.13;43.01;;
72805;Laerm;60920;48.748;19.142;2023-02-28T05:47:11;36.35;33.68;39.50;;
72805;Laerm;60920;48.748;19.142;2023-02-28T05:49:40;36.29;33.80;41.95;;
72805;Laerm;60920;48.748;19.142;2023-02-28T05:52:05;36.50;34.04;39.31;;
72805;Laerm;60920;48.748;19.142;2023-02-28T05:54:31;36.22;33.95;40.02;;
72805;Laerm;60920;48.748;19.142;2023-02-28T05:56:56;36.39;34.05;38.99;;
72805;Laerm;60920;48.748;19.142;2023-02-28T05:59:21;36.09;33.65;39.33;;
72805;Laerm;60920;48.748;19.142;2023-02-28T06:01:46;36.11;33.92;39.51;;
72805;Laerm;60920;48.748;19.142;2023-02-28T06:04:16;36.31;33.97;39.70;;
72805;Laerm;60920;48.748;19.142;2023-02-28T06:06:44;36.20;34.01;40.78;;
72805;Laerm;60920;48.748;19.142;2023-02-28T06:09:10;36.65;34.43;42.42;;
72805;Laerm;60920;48.748;19.142;2023-02-28T06:11:35;36.33;34.51;43.25;;
72805;Laerm;60920;48.748;19.142;2023-02-28T06:14:01;36.17;34.29;39.55;;
72805;Laerm;60920;48.748;19.142;2023-02-28T06:16:27;36.34;34.11;39.28;;
72805;Laerm;60920;48.748;19.142;2023-02-28T06:18:53;36.93;34.26;45.27;;
72805;Laerm;60920;48.748;19.142;2023-02-28T06:21:21;36.75;34.57;42.86;;
72805;Laerm;60920;48.748;19.142;2023-02-28T06:23:46;35.92;33.91;38.18;;
72805;Laerm;60920;48.748;19.142;2023-02-28T06:26:12;36.52;34.37;39.97;;
72805;Laerm;60920;48.748;19.142;2023-02-28T06:28:37;36.61;34.43;40.47;;
72805;Laerm;60920;48.748;19.142;2023-02-28T06:31:09;36.48;34.62;43.42;;
72805;Laerm;60920;48.748;19.142;2023-02-28T06:33:36;36.40;34.34;45.87;;
72805;Laerm;60920;48.748;19.142;2023-02-28T06:36:02;36.32;34.18;40.20;;
72805;Laerm;60920;48.748;19.142;2023-02-28T06:38:27;36.46;34.61;39.02;;
72805;Laerm;60920;48.748;19.142;2023-02-28T06:40:53;36.39;34.62;38.72;;
72805;Laerm;60920;48.748;19.142;2023-02-28T06:43:19;36.35;34.16;39.59;;
72805;Laerm;60920;48.748;19.142;2023-02-28T06:45:44;36.71;34.68;40.33;;
72805;Laerm;60920;48.748;19.142;2023-02-28T06:48:09;36.89;34.70;40.44;;
72805;Laerm;60920;48.748;19.142;2023-02-28T06:50:35;36.94;34.71;43.74;;
72805;Laerm;60920;48.748;19.142;2023-02-28T06:53:03;36.65;34.62;40.31;;
72805;Laerm;60920;48.748;19.142;2023-02-28T06:55:29;36.61;34.55;39.55;;
72805;Laerm;60920;48.748;19.142;2023-02-28T06:57:54;36.34;34.22;41.35;;
72805;Laerm;60920;48.748;19.142;2023-02-28T07:00:22;36.43;34.07;40.20;;
72805;Laerm;60920;48.748;19.142;2023-02-28T07:02:48;36.95;34.02;50.95;;
72805;Laerm;60920;48.748;19.142;2023-02-28T07:05:13;36.51;33.95;49.07;;
72805;Laerm;60920;48.748;19.142;2023-02-28T07:07:39;36.26;33.48;41.33;;
72805;Laerm;60920;48.748;19.142;2023-02-28T07:10:09;36.27;34.08;39.86;;
72805;Laerm;60920;48.748;19.142;2023-02-28T07:12:34;35.60;33.68;41.39;;
72805;Laerm;60920;48.748;19.142;2023-02-28T07:15:01;35.61;33.38;38.01;;
72805;Laerm;60920;48.748;19.142;2023-02-28T07:17:26;35.33;33.12;45.91;;
72805;Laerm;60920;48.748;19.142;2023-02-28T07:19:51;35.28;32.95;39.36;;
72805;Laerm;60920;48.748;19.142;2023-02-28T07:22:16;35.29;33.12;39.47;;
72805;Laerm;60920;48.748;19.142;2023-02-28T07:24:42;35.67;32.69;42.13;;
72805;Laerm;60920;48.748;19.142;2023-02-28T07:27:07;35.21;32.27;40.28;;
72805;Laerm;60920;48.748;19.142;2023-02-28T07:29:32;34.92;32.28;40.75;;
72805;Laerm;60920;48.748;19.142;2023-02-28T07:31:58;38.19;31.89;55.86;;
72805;Laerm;60920;48.748;19.142;2023-02-28T07:34:23;35.52;32.21;50.57;;
72805;Laerm;60920;48.748;19.142;2023-02-28T07:36:48;35.94;31.74;56.46;;
72805;Laerm;60920;48.748;19.142;2023-02-28T07:39:14;36.51;32.00;52.86;;
72805;Laerm;60920;48.748;19.142;2023-02-28T07:41:39;35.85;31.74;42.27;;
72805;Laerm;60920;48.748;19.142;2023-02-28T07:44:09;35.86;32.09;41.91;;
72805;Laerm;60920;48.748;19.142;2023-02-28T07:46:35;35.25;31.29;44.43;;
72805;Laerm;60920;48.748;19.142;2023-02-28T07:49:01;35.30;31.52;41.19;;
72805;Laerm;60920;48.748;19.142;2023-02-28T07:51:28;34.96;31.61;39.15;;
72805;Laerm;60920;48.748;19.142;2023-02-28T07:53:53;35.44;32.01;40.71;;
72805;Laerm;60920;48.748;19.142;2023-02-28T07:56:18;35.75;31.90;41.13;;
72805;Laerm;60920;48.748;19.142;2023-02-28T07:58:43;34.95;30.61;41.76;;
72805;Laerm;60920;48.748;19.142;2023-02-28T08:01:09;35.60;31.61;41.50;;
72805;Laerm;60920;48.748;19.142;2023-02-28T08:03:35;35.62;30.94;41.60;;
72805;Laerm;60920;48.748;19.142;2023-02-28T08:06:02;35.04;31.07;42.42;;
72805;Laerm;60920;48.748;19.142;2023-02-28T08:08:27;34.56;30.59;44.07;;
72805;Laerm;60920;48.748;19.142;2023-02-28T08:10:59;36.32;31.85;45.67;;
72805;Laerm;60920;48.748;19.142;2023-02-28T08:13:25;34.88;31.26;39.35;;
72805;Laerm;60920;48.748;19.142;2023-02-28T08:15:52;35.01;31.07;39.57;;
72805;Laerm;60920;48.748;19.142;2023-02-28T08:18:17;35.46;31.46;44.45;;
72805;Laerm;60920;48.748;19.142;2023-02-28T08:20:42;36.53;32.09;42.20;;
72805;Laerm;60920;48.748;19.142;2023-02-28T08:23:08;35.55;32.19;41.42;;
72805;Laerm;60920;48.748;19.142;2023-02-28T08:25:33;36.18;31.93;42.20;;
72805;Laerm;60920;48.748;19.142;2023-02-28T08:27:58;35.21;31.13;40.98;;
72805;Laerm;60920;48.748;19.142;2023-02-28T08:30:23;36.33;30.89;43.19;;
72805;Laerm;60920;48.748;19.142;2023-02-28T08:32:49;35.19;31.26;41.04;;
72805;Laerm;60920;48.748;19.142;2023-02-28T08:35:14;36.37;31.54;45.80;;
72805;Laerm;60920;48.748;19.142;2023-02-28T08:37:40;34.80;30.43;43.12;;
72805;Laerm;60920;48.748;19.142;2023-02-28T08:40:05;35.02;30.90;41.08;;
72805;Laerm;60920;48.748;19.142;2023-02-28T08:42:31;34.40;30.80;41.26;;
72805;Laerm;60920;48.748;19.142;2023-02-28T08:44:56;35.76;31.47;41.41;;
72805;Laerm;60920;48.748;19.142;2023-02-28T08:47:22;35.08;31.56;39.47;;
72805;Laerm;60920;48.748;19.142;2023-02-28T08:49:47;34.95;31.08;40.25;;
72805;Laerm;60920;48.748;19.142;2023-02-28T08:52:13;35.49;30.91;43.79;;
72805;Laerm;60920;48.748;19.142;2023-02-28T08:54:40;35.29;30.91;46.57;;
72805;Laerm;60920;48.748;19.142;2023-02-28T08:57:06;35.57;31.02;52.40;;
72805;Laerm;60920;48.748;19.142;2023-02-28T08:59:34;35.11;30.53;45.88;;
72805;Laerm;60920;48.748;19.142;2023-02-28T09:02:00;35.32;29.90;43.57;;
72805;Laerm;60920;48.748;19.142;2023-02-28T09:04:28;34.50;30.50;42.55;;
72805;Laerm;60920;48.748;19.142;2023-02-28T09:06:56;34.30;30.60;42.69;;
72805;Laerm;60920;48.748;19.142;2023-02-28T09:09:23;34.35;30.34;43.01;;
72805;Laerm;60920;48.748;19.142;2023-02-28T09:11:50;34.75;30.19;45.46;;
72805;Laerm;60920;48.748;19.142;2023-02-28T09:14:17;35.03;30.90;49.16;;
72805;Laerm;60920;48.748;19.142;2023-02-28T09:16:45;38.43;31.02;51.99;;
72805;Laerm;60920;48.748;19.142;2023-02-28T09:19:11;34.33;30.10;42.77;;
72805;Laerm;60920;48.748;19.142;2023-02-28T09:21:40;34.24;29.85;44.30;;
72805;Laerm;60920;48.748;19.142;2023-02-28T09:24:08;34.25;30.47;41.44;;
72805;Laerm;60920;48.748;19.142;2023-02-28T09:26:34;35.98;31.03;42.91;;
72805;Laerm;60920;48.748;19.142;2023-02-28T09:28:59;35.09;29.89;44.91;;
72805;Laerm;60920;48.748;19.142;2023-02-28T09:31:26;35.42;30.58;47.76;;
72805;Laerm;60920;48.748;19.142;2023-02-28T09:33:53;36.08;30.67;48.13;;
72805;Laerm;60920;48.748;19.142;2023-02-28T09:36:19;35.80;31.21;51.06;;
72805;Laerm;60920;48.748;19.142;2023-02-28T09:38:45;34.96;29.41;46.51;;
72805;Laerm;60920;48.748;19.142;2023-02-28T09:41:21;37.17;31.51;50.54;;
72805;Laerm;60920;48.748;19.142;2023-02-28T09:43:55;35.53;31.06;47.81;;
72805;Laerm;60920;48.748;19.142;2023-02-28T09:49:22;35.37;30.34;44.88;;
72805;Laerm;60920;48.748;19.142;2023-02-28T09:54:23;36.63;30.03;48.17;;
72805;Laerm;60920;48.748;19.142;2023-02-28T09:56:50;37.00;31.76;44.18;;
72805;Laerm;60920;48.748;19.142;2023-02-28T10:04:56;35.59;30.27;43.66;;
72805;Laerm;60920;48.748;19.142;2023-02-28T10:10:23;37.26;31.63;49.98;;
72805;Laerm;60920;48.748;19.142;2023-02-28T10:12:51;35.05;30.26;44.99;;
72805;Laerm;60920;48.748;19.142;2023-02-28T10:15:18;34.85;29.59;41.71;;
72805;Laerm;60920;48.748;19.142;2023-02-28T10:17:45;36.77;32.12;47.54;;
72805;Laerm;60920;48.748;19.142;2023-02-28T10:20:14;34.82;30.47;42.12;;
72805;Laerm;60920;48.748;19.142;2023-02-28T10:23:02;35.73;30.41;45.10;;
72805;Laerm;60920;48.748;19.142;2023-02-28T10:25:33;35.37;29.99;40.93;;
72805;Laerm;60920;48.748;19.142;2023-02-28T10:28:01;36.26;30.07;43.71;;
72805;Laerm;60920;48.748;19.142;2023-02-28T10:30:30;35.76;30.51;43.57;;
72805;Laerm;60920;48.748;19.142;2023-02-28T10:32:56;35.81;30.89;44.80;;
72805;Laerm;60920;48.748;19.142;2023-02-28T10:35:25;35.76;30.23;43.79;;
72805;Laerm;60920;48.748;19.142;2023-02-28T10:37:54;37.10;32.13;43.73;;
72805;Laerm;60920;48.748;19.142;2023-02-28T10:42:54;36.10;31.39;43.21;;
72805;Laerm;60920;48.748;19.142;2023-02-28T10:45:20;36.39;31.30;43.80;;
72805;Laerm;60920;48.748;19.142;2023-02-28T10:50:26;36.33;31.04;49.15;;
72805;Laerm;60920;48.748;19.142;2023-02-28T10:52:53;35.92;30.78;45.09;;
72805;Laerm;60920;48.748;19.142;2023-02-28T10:55:23;37.05;31.83;47.26;;
72805;Laerm;60920;48.748;19.142;2023-02-28T10:57:50;35.60;30.67;48.71;;
72805;Laerm;60920;48.748;19.142;2023-02-28T11:00:23;35.46;30.80;42.34;;
72805;Laerm;60920;48.748;19.142;2023-02-28T11:02:50;36.40;31.15;47.97;;
72805;Laerm;60920;48.748;19.142;2023-02-28T11:05:35;36.85;30.57;51.24;;
72805;Laerm;60920;48.748;19.142;2023-02-28T11:08:12;35.09;30.50;43.97;;
72805;Laerm;60920;48.748;19.142;2023-02-28T11:10:38;35.39;31.15;45.78;;
72805;Laerm;60920;48.748;19.142;2023-02-28T11:13:04;35.92;31.38;45.01;;
72805;Laerm;60920;48.748;19.142;2023-02-28T11:15:30;37.82;32.29;57.41;;
72805;Laerm;60920;48.748;19.142;2023-02-28T11:20:26;35.38;30.63;43.66;;
72805;Laerm;60920;48.748;19.142;2023-02-28T11:22:53;36.13;32.25;41.33;;
72805;Laerm;60920;48.748;19.142;2023-02-28T11:25:30;35.56;31.75;41.86;;
72805;Laerm;60920;48.748;19.142;2023-02-28T11:28:00;36.19;31.93;45.50;;
72805;Laerm;60920;48.748;19.142;2023-02-28T11:30:32;36.89;32.80;43.26;;
72805;Laerm;60920;48.748;19.142;2023-02-28T11:32:58;36.51;31.34;48.63;;
72805;Laerm;60920;48.748;19.142;2023-02-28T11:35:32;36.73;31.36;43.18;;
72805;Laerm;60920;48.748;19.142;2023-02-28T11:37:59;35.78;30.55;44.85;;
72805;Laerm;60920;48.748;19.142;2023-02-28T11:45:57;36.58;31.69;43.06;;
72805;Laerm;60920;48.748;19.142;2023-02-28T11:53:29;36.83;30.77;48.50;;
72805;Laerm;60920;48.748;19.142;2023-02-28T12:06:42;35.81;31.37;43.88;;
72805;Laerm;60920;48.748;19.142;2023-02-28T12:26:54;36.12;31.51;48.52;;
72805;Laerm;60920;48.748;19.142;2023-02-28T12:29:30;39.01;31.90;47.28;;
72805;Laerm;60920;48.748;19.142;2023-02-28T12:32:05;36.05;31.66;42.88;;
72805;Laerm;60920;48.748;19.142;2023-02-28T12:34:33;37.13;31.37;47.33;;
72805;Laerm;60920;48.748;19.142;2023-02-28T12:37:01;36.97;32.28;49.85;;
72805;Laerm;60920;48.748;19.142;2023-02-28T12:39:30;39.58;32.55;63.39;;
72805;Laerm;60920;48.748;19.142;2023-02-28T12:42:13;37.52;33.26;43.32;;
72805;Laerm;60920;48.748;19.142;2023-02-28T12:44:45;38.47;32.16;51.88;;
72805;Laerm;60920;48.748;19.142;2023-02-28T12:47:15;37.11;32.26;48.55;;
72805;Laerm;60920;48.748;19.142;2023-02-28T12:52:13;36.88;32.44;43.11;;
72805;Laerm;60920;48.748;19.142;2023-02-28T12:54:47;36.31;32.39;41.74;;
72805;Laerm;60920;48.748;19.142;2023-02-28T13:07:28;34.09;29.76;41.27;;
72805;Laerm;60920;48.748;19.142;2023-02-28T13:09:56;35.51;30.94;43.65;;
72805;Laerm;60920;48.748;19.142;2023-02-28T13:12:22;35.27;31.42;43.62;;
72805;Laerm;60920;48.748;19.142;2023-02-28T13:14:48;35.85;31.22;44.10;;
72805;Laerm;60920;48.748;19.142;2023-02-28T13:17:18;34.97;30.88;44.36;;
72805;Laerm;60920;48.748;19.142;2023-02-28T13:19:45;35.37;31.42;43.00;;
72805;Laerm;60920;48.748;19.142;2023-02-28T13:29:49;35.43;31.20;47.39;;
72805;Laerm;60920;48.748;19.142;2023-02-28T13:32:34;35.24;31.10;42.09;;
72805;Laerm;60920;48.748;19.142;2023-02-28T13:37:34;37.71;31.04;50.57;;
72805;Laerm;60920;48.748;19.142;2023-02-28T13:42:35;36.01;31.94;42.30;;
72805;Laerm;60920;48.748;19.142;2023-02-28T13:48:13;36.48;32.72;41.49;;
72805;Laerm;60920;48.748;19.142;2023-02-28T13:50:23;37.66;33.28;44.95;;
72805;Laerm;60920;48.748;19.142;2023-02-28T13:58:03;37.53;32.44;53.21;;
72805;Laerm;60920;48.748;19.142;2023-02-28T14:00:41;37.22;32.55;45.05;;
72805;Laerm;60920;48.748;19.142;2023-02-28T14:05:38;36.31;32.28;43.68;;
72805;Laerm;60920;48.748;19.142;2023-02-28T14:08:05;36.54;31.65;47.78;;
72805;Laerm;60920;48.748;19.142;2023-02-28T14:10:32;36.99;33.24;44.75;;
72805;Laerm;60920;48.748;19.142;2023-02-28T14:13:00;35.96;32.45;39.86;;
72805;Laerm;60920;48.748;19.142;2023-02-28T14:17:52;34.61;31.08;38.88;;
72805;Laerm;60920;48.748;19.142;2023-02-28T14:20:18;35.65;31.64;42.72;;
72805;Laerm;60920;48.748;19.142;2023-02-28T14:22:58;35.05;31.19;40.94;;
72805;Laerm;60920;48.748;19.142;2023-02-28T14:25:33;35.17;30.98;40.30;;
72805;Laerm;60920;48.748;19.142;2023-02-28T14:33:20;36.26;32.06;45.47;;
72805;Laerm;60920;48.748;19.142;2023-02-28T14:38:22;36.37;31.87;49.27;;
72805;Laerm;60920;48.748;19.142;2023-02-28T14:40:49;35.55;32.42;40.63;;
72805;Laerm;60920;48.748;19.142;2023-02-28T14:43:34;34.92;31.26;40.28;;
72805;Laerm;60920;48.748;19.142;2023-02-28T14:46:01;36.59;32.39;43.11;;
72805;Laerm;60920;48.748;19.142;2023-02-28T14:48:26;36.47;32.18;48.27;;
72805;Laerm;60920;48.748;19.142;2023-02-28T14:50:53;36.35;31.93;43.93;;
72805;Laerm;60920;48.748;19.142;2023-02-28T14:53:19;36.34;31.20;44.89;;
72805;Laerm;60920;48.748;19.142;2023-02-28T14:55:46;36.50;32.86;49.63;;
72805;Laerm;60920;48.748;19.142;2023-02-28T14:58:50;35.78;32.03;44.58;;
72805;Laerm;60920;48.748;19.142;2023-02-28T15:01:04;36.02;32.07;44.64;;
72805;Laerm;60920;48.748;19.142;2023-02-28T15:03:30;36.37;32.77;43.26;;
72805;Laerm;60920;48.748;19.142;2023-02-28T15:05:57;36.14;32.57;44.01;;
72805;Laerm;60920;48.748;19.142;2023-02-28T15:08:23;35.53;31.74;41.57;;
72805;Laerm;60920;48.748;19.142;2023-02-28T15:10:55;35.80;31.81;43.92;;
72805;Laerm;60920;48.748;19.142;2023-02-28T15:13:23;36.56;32.28;40.97;;
72805;Laerm;60920;48.748;19.142;2023-02-28T15:15:53;36.08;32.42;50.38;;
72805;Laerm;60920;48.748;19.142;2023-02-28T15:18:25;36.32;31.84;46.04;;
72805;Laerm;60920;48.748;19.142;2023-02-28T15:20:53;36.84;31.84;45.88;;
72805;Laerm;60920;48.748;19.142;2023-02-28T15:23:19;36.67;32.09;43.30;;
72805;Laerm;60920;48.748;19.142;2023-02-28T15:25:46;35.47;31.29;39.98;;
72805;Laerm;60920;48.748;19.142;2023-02-28T15:28:13;35.82;31.02;43.71;;
72805;Laerm;60920;48.748;19.142;2023-02-28T15:30:39;36.06;31.54;41.69;;
72805;Laerm;60920;48.748;19.142;2023-02-28T15:35:41;35.72;30.95;39.21;;
72805;Laerm;60920;48.748;19.142;2023-02-28T15:38:25;35.83;31.53;43.74;;
72805;Laerm;60920;48.748;19.142;2023-02-28T15:40:52;35.37;31.35;40.47;;
72805;Laerm;60920;48.748;19.142;2023-02-28T15:43:28;35.43;29.91;45.48;;
72805;Laerm;60920;48.748;19.142;2023-02-28T15:48:22;34.68;31.46;40.82;;
72805;Laerm;60920;48.748;19.142;2023-02-28T15:50:52;34.50;29.89;41.67;;
72805;Laerm;60920;48.748;19.142;2023-02-28T15:53:20;34.18;30.59;38.23;;
72805;Laerm;60920;48.748;19.142;2023-02-28T15:55:52;35.19;31.63;39.98;;
72805;Laerm;60920;48.748;19.142;2023-02-28T15:58:18;35.92;32.20;42.38;;
72805;Laerm;60920;48.748;19.142;2023-02-28T16:00:44;34.86;31.18;40.22;;
72805;Laerm;60920;48.748;19.142;2023-02-28T16:03:24;35.95;31.85;49.25;;
72805;Laerm;60920;48.748;19.142;2023-02-28T16:06:07;34.97;31.73;40.92;;